sensor_id;sensor_type;location;lat;lon;timestamp;pressure;altitude;pressure_sealevel;temperature;humidity
11676;BME280;5894;42.768;23.404;2023-03-21T00:01:16;95489.78;;;11.73;75.58
11676;BME280;5894;42.768;23.404;2023-03-21T00:03:43;95489.31;;;11.71;74.76
11676;BME280;5894;42.768;23.404;2023-03-21T00:06:12;95479.97;;;11.65;73.51
11676;BME280;5894;42.768;23.404;2023-03-21T00:08:39;95474.06;;;11.59;73.08
11676;BME280;5894;42.768;23.404;2023-03-21T00:11:09;95428.03;;;11.26;73.64
11676;BME280;5894;42.768;23.404;2023-03-21T00:13:36;95467.06;;;11.55;74.15
11676;BME280;5894;42.768;23.404;2023-03-21T00:16:08;95469.22;;;11.53;73.99
11676;BME280;5894;42.768;23.404;2023-03-21T00:18:40;95468.78;;;11.51;74.46
11676;BME280;5894;42.768;23.404;2023-03-21T00:21:12;95457.75;;;11.40;74.83
11676;BME280;5894;42.768;23.404;2023-03-21T00:23:40;95470.66;;;11.59;75.47
11676;BME280;5894;42.768;23.404;2023-03-21T00:26:09;95479.97;;;11.56;75.76
11676;BME280;5894;42.768;23.404;2023-03-21T00:28:37;95484.16;;;11.57;76.26
11676;BME280;5894;42.768;23.404;2023-03-21T00:31:06;95487.59;;;11.58;77.67
11676;BME280;5894;42.768;23.404;2023-03-21T00:33:33;95484.34;;;11.61;79.17
11676;BME280;5894;42.768;23.404;2023-03-21T00:36:02;95476.25;;;11.66;80.27
11676;BME280;5894;42.768;23.404;2023-03-21T00:38:29;95478.88;;;11.66;79.97
11676;BME280;5894;42.768;23.404;2023-03-21T00:40:56;95477.66;;;11.72;79.51
11676;BME280;5894;42.768;23.404;2023-03-21T00:43:26;95487.44;;;11.71;78.76
11676;BME280;5894;42.768;23.404;2023-03-21T00:45:55;95484.03;;;11.62;79.78
11676;BME280;5894;42.768;23.404;2023-03-21T00:48:22;95482.47;;;11.61;80.85
11676;BME280;5894;42.768;23.404;2023-03-21T00:50:51;95482.00;;;11.59;81.18
11676;BME280;5894;42.768;23.404;2023-03-21T00:53:20;95480.28;;;11.55;81.89
11676;BME280;5894;42.768;23.404;2023-03-21T00:55:48;95476.41;;;11.52;82.69
11676;BME280;5894;42.768;23.404;2023-03-21T00:58:15;95474.50;;;11.53;82.68
11676;BME280;5894;42.768;23.404;2023-03-21T01:00:44;95462.09;;;11.53;81.63
11676;BME280;5894;42.768;23.404;2023-03-21T01:03:12;95464.25;;;11.43;82.46
11676;BME280;5894;42.768;23.404;2023-03-21T01:05:41;95459.13;;;11.37;83.22
11676;BME280;5894;42.768;23.404;2023-03-21T01:08:27;95466.88;;;11.34;84.51
11676;BME280;5894;42.768;23.404;2023-03-21T01:10:54;95463.75;;;11.32;84.92
11676;BME280;5894;42.768;23.404;2023-03-21T01:13:23;95471.69;;;11.32;84.60
11676;BME280;5894;42.768;23.404;2023-03-21T01:15:54;95478.22;;;11.34;83.02
11676;BME280;5894;42.768;23.404;2023-03-21T01:18:23;95472.72;;;11.14;84.14
11676;BME280;5894;42.768;23.404;2023-03-21T01:20:52;95469.88;;;11.01;86.19
11676;BME280;5894;42.768;23.404;2023-03-21T01:23:20;95458.38;;;10.89;88.17
11676;BME280;5894;42.768;23.404;2023-03-21T01:25:47;95457.72;;;10.83;89.10
11676;BME280;5894;42.768;23.404;2023-03-21T01:28:14;95454.81;;;10.93;87.79
11676;BME280;5894;42.768;23.404;2023-03-21T01:30:44;95457.25;;;10.81;88.49
11676;BME280;5894;42.768;23.404;2023-03-21T01:33:13;95470.41;;;10.73;89.37
11676;BME280;5894;42.768;23.404;2023-03-21T01:35:41;95450.38;;;10.72;88.23
11676;BME280;5894;42.768;23.404;2023-03-21T01:38:08;95457.50;;;10.71;89.22
11676;BME280;5894;42.768;23.404;2023-03-21T01:40:38;95457.69;;;10.75;89.83
11676;BME280;5894;42.768;23.404;2023-03-21T01:43:24;95452.13;;;10.76;89.09
11676;BME280;5894;42.768;23.404;2023-03-21T01:46:16;95488.75;;;10.78;88.19
11676;BME280;5894;42.768;23.404;2023-03-21T01:49:15;95451.78;;;10.69;88.99
11676;BME280;5894;42.768;23.404;2023-03-21T01:51:52;95441.00;;;10.48;90.73
11676;BME280;5894;42.768;23.404;2023-03-21T01:54:24;95452.03;;;10.59;91.81
11676;BME280;5894;42.768;23.404;2023-03-21T01:56:55;95454.50;;;10.55;93.66
11676;BME280;5894;42.768;23.404;2023-03-21T01:59:26;95458.81;;;10.51;95.24
11676;BME280;5894;42.768;23.404;2023-03-21T02:02:16;95445.47;;;10.48;96.22
11676;BME280;5894;42.768;23.404;2023-03-21T02:05:01;95372.38;;;9.86;96.91
11676;BME280;5894;42.768;23.404;2023-03-21T02:07:32;95454.72;;;10.37;97.39
11676;BME280;5894;42.768;23.404;2023-03-21T02:10:09;95463.41;;;10.37;96.94
11676;BME280;5894;42.768;23.404;2023-03-21T02:12:38;95462.94;;;10.35;96.84
11676;BME280;5894;42.768;23.404;2023-03-21T02:15:07;95463.03;;;10.30;97.41
11676;BME280;5894;42.768;23.404;2023-03-21T02:18:01;95461.03;;;10.27;98.19
11676;BME280;5894;42.768;23.404;2023-03-21T02:27:07;95447.59;;;10.15;98.67
11676;BME280;5894;42.768;23.404;2023-03-21T02:32:51;95448.47;;;10.10;98.12
11676;BME280;5894;42.768;23.404;2023-03-21T02:35:40;95447.47;;;9.98;99.91
11676;BME280;5894;42.768;23.404;2023-03-21T02:38:16;95421.78;;;9.81;99.62
11676;BME280;5894;42.768;23.404;2023-03-21T02:40:48;95439.75;;;10.01;99.16
11676;BME280;5894;42.768;23.404;2023-03-21T02:43:26;95443.44;;;10.00;99.02
11676;BME280;5894;42.768;23.404;2023-03-21T02:46:00;95442.28;;;10.06;98.37
11676;BME280;5894;42.768;23.404;2023-03-21T02:48:33;95433.34;;;9.93;98.36
11676;BME280;5894;42.768;23.404;2023-03-21T02:51:04;95445.25;;;9.91;99.00
11676;BME280;5894;42.768;23.404;2023-03-21T02:53:37;95442.06;;;9.80;100.00
11676;BME280;5894;42.768;23.404;2023-03-21T02:56:08;95444.50;;;9.77;100.00
11676;BME280;5894;42.768;23.404;2023-03-21T02:58:41;95394.59;;;9.49;100.00
11676;BME280;5894;42.768;23.404;2023-03-21T03:01:09;95435.09;;;9.76;100.00
11676;BME280;5894;42.768;23.404;2023-03-21T03:03:41;95439.38;;;9.72;100.00
11676;BME280;5894;42.768;23.404;2023-03-21T03:06:15;95428.22;;;9.52;100.00
11676;BME280;5894;42.768;23.404;2023-03-21T03:08:58;95447.09;;;9.68;100.00
11676;BME280;5894;42.768;23.404;2023-03-21T03:11:33;95445.06;;;9.65;100.00
11676;BME280;5894;42.768;23.404;2023-03-21T03:14:34;95441.75;;;9.60;100.00
11676;BME280;5894;42.768;23.404;2023-03-21T03:17:16;95439.13;;;9.60;100.00
11676;BME280;5894;42.768;23.404;2023-03-21T03:19:55;95392.50;;;9.24;100.00
11676;BME280;5894;42.768;23.404;2023-03-21T03:22:38;95437.19;;;9.51;100.00
11676;BME280;5894;42.768;23.404;2023-03-21T03:25:11;95449.09;;;9.49;100.00
11676;BME280;5894;42.768;23.404;2023-03-21T03:27:41;95449.09;;;9.49;100.00
11676;BME280;5894;42.768;23.404;2023-03-21T03:30:10;95449.50;;;9.42;100.00
11676;BME280;5894;42.768;23.404;2023-03-21T03:32:41;95455.56;;;9.43;100.00
11676;BME280;5894;42.768;23.404;2023-03-21T03:35:12;95446.59;;;9.30;100.00
11676;BME280;5894;42.768;23.404;2023-03-21T03:37:41;95458.00;;;9.39;100.00
11676;BME280;5894;42.768;23.404;2023-03-21T03:40:14;95460.91;;;9.38;100.00
11676;BME280;5894;42.768;23.404;2023-03-21T03:42:52;95462.19;;;9.40;100.00
11676;BME280;5894;42.768;23.404;2023-03-21T03:45:33;95448.03;;;9.36;100.00
11676;BME280;5894;42.768;23.404;2023-03-21T03:48:04;95417.50;;;9.13;100.00
11676;BME280;5894;42.768;23.404;2023-03-21T03:50:38;95451.91;;;9.03;100.00
11676;BME280;5894;42.768;23.404;2023-03-21T03:53:15;95451.50;;;8.96;100.00
11676;BME280;5894;42.768;23.404;2023-03-21T03:55:50;95451.91;;;8.89;100.00
11676;BME280;5894;42.768;23.404;2023-03-21T03:58:19;95449.34;;;8.84;100.00
11676;BME280;5894;42.768;23.404;2023-03-21T04:00:46;95455.13;;;8.86;100.00
11676;BME280;5894;42.768;23.404;2023-03-21T04:03:13;95457.16;;;8.89;100.00
11676;BME280;5894;42.768;23.404;2023-03-21T04:05:40;95446.66;;;8.89;100.00
11676;BME280;5894;42.768;23.404;2023-03-21T04:08:13;95452.78;;;8.84;100.00
11676;BME280;5894;42.768;23.404;2023-03-21T04:10:44;95455.69;;;8.83;100.00
11676;BME280;5894;42.768;23.404;2023-03-21T04:13:12;95455.78;;;8.78;100.00
11676;BME280;5894;42.768;23.404;2023-03-21T04:16:03;95452.97;;;8.74;100.00
11676;BME280;5894;42.768;23.404;2023-03-21T04:18:30;95454.81;;;8.74;100.00
11676;BME280;5894;42.768;23.404;2023-03-21T04:20:57;95442.56;;;8.69;100.00
11676;BME280;5894;42.768;23.404;2023-03-21T04:23:27;95451.13;;;8.75;100.00
11676;BME280;5894;42.768;23.404;2023-03-21T04:25:54;95455.22;;;8.67;100.00
11676;BME280;5894;42.768;23.404;2023-03-21T04:28:22;95451.03;;;8.66;100.00
11676;BME280;5894;42.768;23.404;2023-03-21T04:31:09;95449.75;;;8.77;100.00
11676;BME280;5894;42.768;23.404;2023-03-21T04:33:44;95417.97;;;8.33;100.00
11676;BME280;5894;42.768;23.404;2023-03-21T04:36:12;95439.72;;;8.66;100.00
11676;BME280;5894;42.768;23.404;2023-03-21T04:38:50;95444.78;;;8.49;100.00
11676;BME280;5894;42.768;23.404;2023-03-21T04:41:18;95445.91;;;8.42;100.00
11676;BME280;5894;42.768;23.404;2023-03-21T04:43:48;95444.06;;;8.43;100.00
11676;BME280;5894;42.768;23.404;2023-03-21T04:46:15;95475.44;;;8.39;100.00
11676;BME280;5894;42.768;23.404;2023-03-21T04:48:42;95450.28;;;8.33;100.00
11676;BME280;5894;42.768;23.404;2023-03-21T04:51:09;95456.31;;;8.34;100.00
11676;BME280;5894;42.768;23.404;2023-03-21T04:53:36;95393.44;;;7.91;100.00
11676;BME280;5894;42.768;23.404;2023-03-21T04:56:05;95457.88;;;8.35;100.00
11676;BME280;5894;42.768;23.404;2023-03-21T04:58:33;95457.59;;;8.36;100.00
11676;BME280;5894;42.768;23.404;2023-03-21T05:01:01;95457.09;;;8.34;100.00
11676;BME280;5894;42.768;23.404;2023-03-21T05:03:30;95460.84;;;8.47;100.00
11676;BME280;5894;42.768;23.404;2023-03-21T05:05:58;95405.94;;;8.13;100.00
11676;BME280;5894;42.768;23.404;2023-03-21T05:08:25;95461.41;;;8.44;100.00
11676;BME280;5894;42.768;23.404;2023-03-21T05:10:52;95450.88;;;8.44;100.00
11676;BME280;5894;42.768;23.404;2023-03-21T05:13:20;95464.63;;;8.55;100.00
11676;BME280;5894;42.768;23.404;2023-03-21T05:15:48;95451.59;;;8.50;100.00
11676;BME280;5894;42.768;23.404;2023-03-21T05:18:17;95445.06;;;8.47;100.00
11676;BME280;5894;42.768;23.404;2023-03-21T05:20:59;95425.38;;;8.44;100.00
11676;BME280;5894;42.768;23.404;2023-03-21T05:23:29;95412.44;;;8.34;100.00
11676;BME280;5894;42.768;23.404;2023-03-21T05:25:56;95440.19;;;8.54;100.00
11676;BME280;5894;42.768;23.404;2023-03-21T05:28:35;95450.03;;;8.49;100.00
11676;BME280;5894;42.768;23.404;2023-03-21T05:31:02;95440.19;;;8.54;100.00
11676;BME280;5894;42.768;23.404;2023-03-21T05:33:31;95453.44;;;8.49;100.00
11676;BME280;5894;42.768;23.404;2023-03-21T05:35:58;95466.09;;;8.47;100.00
11676;BME280;5894;42.768;23.404;2023-03-21T05:38:29;95439.22;;;8.36;100.00
11676;BME280;5894;42.768;23.404;2023-03-21T05:40:55;95434.63;;;8.42;100.00
11676;BME280;5894;42.768;23.404;2023-03-21T05:43:23;95470.94;;;8.54;100.00
11676;BME280;5894;42.768;23.404;2023-03-21T05:45:50;95468.94;;;8.64;100.00
11676;BME280;5894;42.768;23.404;2023-03-21T05:48:17;95465.34;;;8.60;100.00
11676;BME280;5894;42.768;23.404;2023-03-21T05:51:12;95466.78;;;8.66;100.00
11676;BME280;5894;42.768;23.404;2023-03-21T05:53:39;95462.03;;;8.68;100.00
11676;BME280;5894;42.768;23.404;2023-03-21T05:56:07;95398.22;;;8.35;100.00
11676;BME280;5894;42.768;23.404;2023-03-21T05:58:43;95444.97;;;8.66;100.00
11676;BME280;5894;42.768;23.404;2023-03-21T06:01:10;95443.34;;;8.70;100.00
11676;BME280;5894;42.768;23.404;2023-03-21T06:03:40;95445.56;;;8.76;100.00
11676;BME280;5894;42.768;23.404;2023-03-21T06:06:21;95458.63;;;8.81;100.00
11676;BME280;5894;42.768;23.404;2023-03-21T06:08:59;95437.88;;;8.66;100.00
11676;BME280;5894;42.768;23.404;2023-03-21T06:11:28;95453.84;;;8.70;100.00
11676;BME280;5894;42.768;23.404;2023-03-21T06:14:20;95447.22;;;8.59;100.00
11676;BME280;5894;42.768;23.404;2023-03-21T06:17:07;95454.81;;;8.60;100.00
11676;BME280;5894;42.768;23.404;2023-03-21T06:19:40;95450.13;;;8.57;100.00
11676;BME280;5894;42.768;23.404;2023-03-21T06:22:15;95452.47;;;8.72;100.00
11676;BME280;5894;42.768;23.404;2023-03-21T06:24:43;95365.19;;;8.16;100.00
11676;BME280;5894;42.768;23.404;2023-03-21T06:27:10;95434.06;;;8.72;100.00
11676;BME280;5894;42.768;23.404;2023-03-21T06:29:52;95446.66;;;8.89;100.00
11676;BME280;5894;42.768;23.404;2023-03-21T06:32:20;95447.31;;;8.95;100.00
11676;BME280;5894;42.768;23.404;2023-03-21T06:34:50;95448.78;;;9.01;100.00
11676;BME280;5894;42.768;23.404;2023-03-21T06:37:19;95451.09;;;9.16;100.00
11676;BME280;5894;42.768;23.404;2023-03-21T06:39:46;95450.09;;;9.26;100.00
11676;BME280;5894;42.768;23.404;2023-03-21T06:42:13;95439.50;;;9.17;100.00
11676;BME280;5894;42.768;23.404;2023-03-21T06:44:40;95388.75;;;9.16;100.00
11676;BME280;5894;42.768;23.404;2023-03-21T06:47:12;95450.63;;;9.64;100.00
11676;BME280;5894;42.768;23.404;2023-03-21T06:49:40;95436.63;;;9.77;100.00
11676;BME280;5894;42.768;23.404;2023-03-21T06:52:09;95438.56;;;9.85;100.00
11676;BME280;5894;42.768;23.404;2023-03-21T06:54:38;95414.78;;;9.76;100.00
11676;BME280;5894;42.768;23.404;2023-03-21T06:57:14;95442.38;;;10.01;100.00
11676;BME280;5894;42.768;23.404;2023-03-21T06:59:43;95447.09;;;10.13;100.00
11676;BME280;5894;42.768;23.404;2023-03-21T07:02:15;95433.94;;;10.13;100.00
11676;BME280;5894;42.768;23.404;2023-03-21T07:04:58;95446.44;;;10.29;100.00
11676;BME280;5894;42.768;23.404;2023-03-21T07:07:28;95455.66;;;10.41;99.74
11676;BME280;5894;42.768;23.404;2023-03-21T07:09:56;95461.13;;;10.44;99.31
11676;BME280;5894;42.768;23.404;2023-03-21T07:12:25;95459.78;;;10.55;98.71
11676;BME280;5894;42.768;23.404;2023-03-21T07:15:15;95462.47;;;10.64;97.39
11676;BME280;5894;42.768;23.404;2023-03-21T07:17:44;95459.56;;;10.74;97.67
11676;BME280;5894;42.768;23.404;2023-03-21T07:20:11;95457.44;;;10.85;98.33
11676;BME280;5894;42.768;23.404;2023-03-21T07:22:39;95460.38;;;10.92;96.94
11676;BME280;5894;42.768;23.404;2023-03-21T07:25:08;95449.38;;;10.90;96.47
11676;BME280;5894;42.768;23.404;2023-03-21T07:27:38;95460.28;;;11.06;95.89
11676;BME280;5894;42.768;23.404;2023-03-21T07:30:06;95467.75;;;11.12;95.00
11676;BME280;5894;42.768;23.404;2023-03-21T07:32:34;95466.38;;;11.23;93.64
11676;BME280;5894;42.768;23.404;2023-03-21T07:35:04;95442.78;;;11.18;92.82
11676;BME280;5894;42.768;23.404;2023-03-21T07:37:31;95456.66;;;11.41;88.83
11676;BME280;5894;42.768;23.404;2023-03-21T07:40:01;95438.75;;;11.21;88.15
11676;BME280;5894;42.768;23.404;2023-03-21T07:42:36;95469.56;;;11.51;88.18
11676;BME280;5894;42.768;23.404;2023-03-21T07:45:03;95464.59;;;11.58;86.85
11676;BME280;5894;42.768;23.404;2023-03-21T07:47:32;95471.56;;;11.63;87.03
11676;BME280;5894;42.768;23.404;2023-03-21T07:50:00;95462.44;;;11.77;86.79
11676;BME280;5894;42.768;23.404;2023-03-21T07:52:29;95456.41;;;11.77;82.29
11676;BME280;5894;42.768;23.404;2023-03-21T07:54:56;95466.50;;;11.92;85.46
11676;BME280;5894;42.768;23.404;2023-03-21T07:57:23;95457.50;;;12.02;84.71
11676;BME280;5894;42.768;23.404;2023-03-21T07:59:51;95459.66;;;12.08;85.23
11676;BME280;5894;42.768;23.404;2023-03-21T08:02:18;95458.56;;;12.01;87.70
11676;BME280;5894;42.768;23.404;2023-03-21T08:04:45;95462.91;;;12.05;87.25
11676;BME280;5894;42.768;23.404;2023-03-21T08:07:12;95460.41;;;12.18;86.34
11676;BME280;5894;42.768;23.404;2023-03-21T08:09:39;95457.75;;;12.26;84.28
11676;BME280;5894;42.768;23.404;2023-03-21T08:12:06;95458.38;;;12.32;84.99
11676;BME280;5894;42.768;23.404;2023-03-21T08:14:33;95460.06;;;12.36;84.48
11676;BME280;5894;42.768;23.404;2023-03-21T08:17:02;95464.25;;;12.37;83.47
11676;BME280;5894;42.768;23.404;2023-03-21T08:19:29;95455.31;;;12.68;78.94
11676;BME280;5894;42.768;23.404;2023-03-21T08:21:56;95446.88;;;12.83;81.08
11676;BME280;5894;42.768;23.404;2023-03-21T08:24:24;95446.50;;;12.93;73.67
11676;BME280;5894;42.768;23.404;2023-03-21T08:26:51;95448.81;;;13.03;72.14
11676;BME280;5894;42.768;23.404;2023-03-21T08:29:18;95438.94;;;13.12;76.29
11676;BME280;5894;42.768;23.404;2023-03-21T08:31:46;95441.97;;;13.32;77.21
11676;BME280;5894;42.768;23.404;2023-03-21T08:34:14;95440.00;;;13.49;73.50
11676;BME280;5894;42.768;23.404;2023-03-21T08:36:42;95434.75;;;13.62;64.21
11676;BME280;5894;42.768;23.404;2023-03-21T08:39:09;95438.50;;;13.60;63.85
11676;BME280;5894;42.768;23.404;2023-03-21T08:41:36;95433.03;;;13.66;65.15
11676;BME280;5894;42.768;23.404;2023-03-21T08:44:05;95436.84;;;13.77;65.64
11676;BME280;5894;42.768;23.404;2023-03-21T08:46:32;95433.00;;;13.86;65.02
11676;BME280;5894;42.768;23.404;2023-03-21T08:48:59;95438.25;;;13.95;63.70
11676;BME280;5894;42.768;23.404;2023-03-21T08:51:27;95440.88;;;13.95;63.54
11676;BME280;5894;42.768;23.404;2023-03-21T08:53:54;95440.88;;;13.95;66.56
11676;BME280;5894;42.768;23.404;2023-03-21T08:56:21;95437.84;;;14.05;65.09
11676;BME280;5894;42.768;23.404;2023-03-21T08:58:47;95442.94;;;14.10;65.49
11676;BME280;5894;42.768;23.404;2023-03-21T09:01:14;95438.34;;;14.19;65.96
11676;BME280;5894;42.768;23.404;2023-03-21T09:03:41;95444.66;;;14.27;66.51
11676;BME280;5894;42.768;23.404;2023-03-21T09:06:09;95438.31;;;14.40;65.42
11676;BME280;5894;42.768;23.404;2023-03-21T09:08:40;95437.31;;;14.45;64.65
11676;BME280;5894;42.768;23.404;2023-03-21T09:11:07;95433.16;;;14.56;63.80
11676;BME280;5894;42.768;23.404;2023-03-21T09:13:34;95423.22;;;14.65;62.79
11676;BME280;5894;42.768;23.404;2023-03-21T09:16:01;95415.16;;;14.74;60.26
11676;BME280;5894;42.768;23.404;2023-03-21T09:18:29;95417.91;;;14.77;57.65
11676;BME280;5894;42.768;23.404;2023-03-21T09:21:10;95422.44;;;14.77;58.44
11676;BME280;5894;42.768;23.404;2023-03-21T09:23:37;95419.91;;;14.80;59.79
11676;BME280;5894;42.768;23.404;2023-03-21T09:26:07;95415.72;;;14.79;59.98
11676;BME280;5894;42.768;23.404;2023-03-21T09:28:35;95415.06;;;14.82;60.00
11676;BME280;5894;42.768;23.404;2023-03-21T09:31:03;95411.50;;;14.90;60.83
11676;BME280;5894;42.768;23.404;2023-03-21T09:33:32;95416.25;;;14.97;61.13
11676;BME280;5894;42.768;23.404;2023-03-21T09:36:00;95411.28;;;14.95;59.76
11676;BME280;5894;42.768;23.404;2023-03-21T09:38:34;95397.91;;;14.92;59.16
11676;BME280;5894;42.768;23.404;2023-03-21T09:41:12;95392.47;;;15.00;60.27
11676;BME280;5894;42.768;23.404;2023-03-21T09:43:51;95395.78;;;15.10;59.36
11676;BME280;5894;42.768;23.404;2023-03-21T09:46:26;95379.72;;;15.18;59.62
11676;BME280;5894;42.768;23.404;2023-03-21T09:49:02;95373.44;;;15.23;59.65
11676;BME280;5894;42.768;23.404;2023-03-21T09:51:38;95380.41;;;15.15;60.01
11676;BME280;5894;42.768;23.404;2023-03-21T09:54:12;95371.91;;;14.97;60.97
11676;BME280;5894;42.768;23.404;2023-03-21T09:56:45;95368.47;;;14.97;61.71
11676;BME280;5894;42.768;23.404;2023-03-21T09:59:19;95370.69;;;14.95;61.95
11676;BME280;5894;42.768;23.404;2023-03-21T10:01:48;95326.34;;;14.59;62.16
11676;BME280;5894;42.768;23.404;2023-03-21T10:04:16;95360.28;;;14.90;61.43
11676;BME280;5894;42.768;23.404;2023-03-21T10:06:52;95361.59;;;14.96;61.95
11676;BME280;5894;42.768;23.404;2023-03-21T10:09:22;95359.63;;;14.93;61.37
11676;BME280;5894;42.768;23.404;2023-03-21T10:11:53;95367.34;;;14.98;62.23
11676;BME280;5894;42.768;23.404;2023-03-21T10:14:26;95357.63;;;14.90;61.88
11676;BME280;5894;42.768;23.404;2023-03-21T10:16:56;95361.50;;;15.04;62.33
11676;BME280;5894;42.768;23.404;2023-03-21T10:19:26;95359.97;;;15.03;59.52
11676;BME280;5894;42.768;23.404;2023-03-21T10:21:53;95263.84;;;14.37;59.59
11676;BME280;5894;42.768;23.404;2023-03-21T10:24:22;95332.97;;;14.89;60.16
11676;BME280;5894;42.768;23.404;2023-03-21T10:26:52;95290.28;;;14.70;58.45
11676;BME280;5894;42.768;23.404;2023-03-21T10:29:21;95334.81;;;15.13;58.83
11676;BME280;5894;42.768;23.404;2023-03-21T10:31:50;95343.31;;;15.19;57.82
11676;BME280;5894;42.768;23.404;2023-03-21T10:34:29;95340.00;;;15.22;57.68
11676;BME280;5894;42.768;23.404;2023-03-21T10:36:58;95334.34;;;15.23;55.49
11676;BME280;5894;42.768;23.404;2023-03-21T10:39:31;95342.06;;;15.40;55.41
11676;BME280;5894;42.768;23.404;2023-03-21T10:42:01;95298.91;;;15.31;52.54
11676;BME280;5894;42.768;23.404;2023-03-21T10:44:30;95335.66;;;15.69;53.67
11676;BME280;5894;42.768;23.404;2023-03-21T10:46:58;95337.88;;;15.95;52.34
11676;BME280;5894;42.768;23.404;2023-03-21T10:49:29;95341.66;;;16.10;50.48
11676;BME280;5894;42.768;23.404;2023-03-21T10:51:58;95335.78;;;16.17;50.64
11676;BME280;5894;42.768;23.404;2023-03-21T10:54:28;95341.19;;;16.36;51.84
11676;BME280;5894;42.768;23.404;2023-03-21T10:56:59;95338.03;;;16.46;52.43
11676;BME280;5894;42.768;23.404;2023-03-21T10:59:36;95324.28;;;16.44;53.33
11676;BME280;5894;42.768;23.404;2023-03-21T11:02:04;95336.00;;;16.71;52.21
11676;BME280;5894;42.768;23.404;2023-03-21T11:04:32;95329.72;;;16.79;52.21
11676;BME280;5894;42.768;23.404;2023-03-21T11:07:02;95327.53;;;16.84;52.42
11676;BME280;5894;42.768;23.404;2023-03-21T11:09:43;95323.75;;;16.85;50.76
11676;BME280;5894;42.768;23.404;2023-03-21T11:12:12;95320.75;;;16.87;51.31
11676;BME280;5894;42.768;23.404;2023-03-21T11:14:43;95316.63;;;16.90;51.70
11676;BME280;5894;42.768;23.404;2023-03-21T11:17:19;95291.50;;;16.71;50.77
11676;BME280;5894;42.768;23.404;2023-03-21T11:19:47;95320.66;;;16.99;52.26
11676;BME280;5894;42.768;23.404;2023-03-21T11:22:15;95290.56;;;16.99;52.21
11676;BME280;5894;42.768;23.404;2023-03-21T11:24:48;95303.66;;;17.23;51.01
11676;BME280;5894;42.768;23.404;2023-03-21T11:27:15;95301.69;;;17.20;49.16
11676;BME280;5894;42.768;23.404;2023-03-21T11:29:47;95298.31;;;17.23;49.05
11676;BME280;5894;42.768;23.404;2023-03-21T11:32:21;95281.69;;;17.30;48.38
11676;BME280;5894;42.768;23.404;2023-03-21T11:34:49;95285.97;;;17.34;48.19
11676;BME280;5894;42.768;23.404;2023-03-21T11:37:25;95257.00;;;17.13;49.29
11676;BME280;5894;42.768;23.404;2023-03-21T11:40:05;95246.16;;;17.22;50.23
11676;BME280;5894;42.768;23.404;2023-03-21T11:42:40;95271.66;;;17.42;49.91
11676;BME280;5894;42.768;23.404;2023-03-21T11:45:13;95262.13;;;17.41;51.05
11676;BME280;5894;42.768;23.404;2023-03-21T11:47:40;95257.06;;;17.55;49.42
11676;BME280;5894;42.768;23.404;2023-03-21T11:50:28;95254.63;;;17.66;47.85
11676;BME280;5894;42.768;23.404;2023-03-21T11:53:16;95252.66;;;17.63;49.29
11676;BME280;5894;42.768;23.404;2023-03-21T11:56:01;95254.63;;;17.66;50.14
11676;BME280;5894;42.768;23.404;2023-03-21T11:58:41;95251.75;;;17.75;50.46
11676;BME280;5894;42.768;23.404;2023-03-21T12:01:22;95250.31;;;17.81;48.86
11676;BME280;5894;42.768;23.404;2023-03-21T12:04:10;95251.84;;;17.82;47.86
11676;BME280;5894;42.768;23.404;2023-03-21T12:06:45;95246.59;;;17.85;47.75
11676;BME280;5894;42.768;23.404;2023-03-21T12:09:36;95246.22;;;17.87;47.09
11676;BME280;5894;42.768;23.404;2023-03-21T12:12:11;95193.25;;;17.63;46.75
11676;BME280;5894;42.768;23.404;2023-03-21T12:14:49;95234.19;;;17.96;46.25
11676;BME280;5894;42.768;23.404;2023-03-21T12:17:26;95237.44;;;17.86;47.30
11676;BME280;5894;42.768;23.404;2023-03-21T12:20:11;95221.44;;;17.86;48.71
11676;BME280;5894;42.768;23.404;2023-03-21T12:22:47;95227.69;;;17.94;47.45
11676;BME280;5894;42.768;23.404;2023-03-21T12:25:21;95221.34;;;18.02;46.05
11676;BME280;5894;42.768;23.404;2023-03-21T12:27:59;95221.84;;;18.11;45.65
11676;BME280;5894;42.768;23.404;2023-03-21T12:30:42;95219.53;;;18.10;45.54
11676;BME280;5894;42.768;23.404;2023-03-21T12:33:30;95219.50;;;18.06;46.41
11676;BME280;5894;42.768;23.404;2023-03-21T12:36:24;95211.19;;;18.11;46.55
11676;BME280;5894;42.768;23.404;2023-03-21T12:39:02;95207.81;;;18.14;45.57
11676;BME280;5894;42.768;23.404;2023-03-21T12:41:37;95188.13;;;18.00;44.98
11676;BME280;5894;42.768;23.404;2023-03-21T12:44:10;95206.69;;;18.15;45.77
11676;BME280;5894;42.768;23.404;2023-03-21T12:46:43;95175.03;;;17.91;45.73
11676;BME280;5894;42.768;23.404;2023-03-21T12:49:16;95206.56;;;18.08;45.05
11676;BME280;5894;42.768;23.404;2023-03-21T12:51:47;95184.75;;;18.03;45.67
11676;BME280;5894;42.768;23.404;2023-03-21T12:54:22;95192.16;;;18.13;47.54
11676;BME280;5894;42.768;23.404;2023-03-21T12:56:54;95180.72;;;18.12;45.62
11676;BME280;5894;42.768;23.404;2023-03-21T12:59:30;95179.53;;;18.10;44.81
11676;BME280;5894;42.768;23.404;2023-03-21T13:02:12;95181.91;;;18.15;46.34
11676;BME280;5894;42.768;23.404;2023-03-21T13:04:46;95115.19;;;17.66;44.27
11676;BME280;5894;42.768;23.404;2023-03-21T13:07:18;95184.91;;;18.13;44.14
11676;BME280;5894;42.768;23.404;2023-03-21T13:09:47;95168.31;;;18.01;44.70
11676;BME280;5894;42.768;23.404;2023-03-21T13:12:25;95148.59;;;17.82;45.75
11676;BME280;5894;42.768;23.404;2023-03-21T13:15:22;95167.66;;;18.07;46.95
11676;BME280;5894;42.768;23.404;2023-03-21T13:17:58;95170.31;;;18.07;48.93
11676;BME280;5894;42.768;23.404;2023-03-21T13:20:34;95141.25;;;17.76;45.46
11676;BME280;5894;42.768;23.404;2023-03-21T13:23:05;95162.53;;;17.95;45.27
11676;BME280;5894;42.768;23.404;2023-03-21T13:25:40;95168.63;;;17.95;46.24
11676;BME280;5894;42.768;23.404;2023-03-21T13:28:17;95164.72;;;17.89;47.85
11676;BME280;5894;42.768;23.404;2023-03-21T13:30:44;95147.34;;;17.76;49.22
11676;BME280;5894;42.768;23.404;2023-03-21T13:33:14;95162.06;;;17.89;48.38
11676;BME280;5894;42.768;23.404;2023-03-21T13:35:44;95109.66;;;17.55;48.85